WAJJ/DJJ METAR and TAF weather

Enter ICAO airport designator
Station Type Date Time Source
WAJJ METAR 2021/05/14 05:00 UTC NOAA

WAJJ 140500Z 12009KT 9999 FEW013 33/23 Q1004 NOSIG


Station Type Date Time Source
WAJJ Decoded METAR 2021/05/14 05:00 UTC NOAA

Jayapura / Sentani, Indonesia (WAJJ) 02-34S 140-29E 99M
May 14, 2021 - 01:00 AM EDT / 2021.05.14 0500 UTC
Wind: from the ESE (120 degrees) at 10 MPH (9 KT):0
Visibility: greater than 7 mile(s):0
Sky conditions: mostly clear
Temperature: 91 F (33 C)
Heat index: 99.1 F (37.3 C):1
Dew Point: 73 F (23 C)
Relative Humidity: 55%
Pressure (altimeter): 29.65 in. Hg (1004 hPa)
ob: WAJJ 140500Z 12009KT 9999 FEW013 33/23 Q1004 NOSIG
cycle: 5

Station Type Date Time Source
WAJJ TAF 2013/03/11 12:00 UTC NOAA

TAF WAJJ 111100Z 1112/1212 29006KT 5000 HZ SCT016
TEMPO 1113/1121 4000 RA FEW014CB
BECMG 1200/1202 28012KT 9999
TEMPO 1207/1212 6000 RA FEW014CB

Example: see airport list